Time;durP1;ratioP1;P1;durP2;ratioP2;P2;SDS_P1;SDS_P2;PMS_P1;PMS_P2;Temp;Humidity;BMP_temperature;BMP_pressure;BME280_temperature;BME280_humidity;BME280_pressure;Samples;Min_cycle;Max_cycle;Signal;HPM_P1;HPM_P2
2022/04/04 00:02:17;;;;;;;8.32;3.40;;;3.00;99.90;;;;;;5056683;28;20041;-87
2022/04/04 00:04:43;;;;;;;4.82;3.20;;;3.10;99.90;;;;;;5040201;28;20032;-87
2022/04/04 00:07:08;;;;;;;7.03;3.22;;;3.10;99.90;;;;;;5052043;28;20067;-88
2022/04/04 00:09:38;;;;;;;5.13;3.35;;;3.10;99.90;;;;;;5054248;28;20045;-86
2022/04/04 00:12:04;;;;;;;5.13;3.17;;;3.00;99.90;;;;;;5049518;28;20056;-87
2022/04/04 00:14:30;;;;;;;7.60;3.50;;;3.00;99.90;;;;;;5056461;28;20043;-87
2022/04/04 00:17:00;;;;;;;5.30;3.70;;;3.00;99.90;;;;;;5061723;28;20587;-87
2022/04/04 00:19:28;;;;;;;5.05;4.00;;;3.00;99.90;;;;;;5056620;28;20045;-87
2022/04/04 00:21:54;;;;;;;5.25;3.95;;;3.10;99.90;;;;;;5043535;28;20039;-87
2022/04/04 00:24:23;;;;;;;5.45;4.18;;;3.00;99.90;;;;;;5053898;28;20179;-86
2022/04/04 00:26:56;;;;;;;7.20;4.03;;;3.20;99.90;;;;;;5039112;28;20506;-87
2022/04/04 00:29:25;;;;;;;6.83;4.60;;;3.20;99.90;;;;;;5040829;28;20032;-87
2022/04/04 00:31:54;;;;;;;8.05;4.85;;;3.20;99.90;;;;;;5052783;28;20131;-87
2022/04/04 00:34:28;;;;;;;6.72;4.45;;;3.20;99.90;;;;;;5056158;28;20045;-87
2022/04/04 00:36:56;;;;;;;6.18;4.40;;;3.10;99.90;;;;;;5035083;28;20602;-87
2022/04/04 00:39:27;;;;;;;8.30;4.35;;;3.20;99.90;;;;;;5054847;28;20131;-87
2022/04/04 00:42:02;;;;;;;6.88;4.68;;;3.20;99.90;;;;;;5039406;28;20052;-88
2022/04/04 00:44:30;;;;;;;;;;;3.20;99.90;;;;;;5050693;28;20032;-88
2022/04/04 00:46:57;;;;;;;9.27;4.70;;;3.30;99.90;;;;;;5039139;28;19963;-87
2022/04/04 00:49:23;;;;;;;7.88;4.70;;;3.20;99.90;;;;;;5036582;28;20041;-89
2022/04/04 00:51:52;;;;;;;9.18;5.20;;;3.40;99.90;;;;;;5036062;28;20044;-87
2022/04/04 00:54:21;;;;;;;7.38;4.85;;;3.30;99.90;;;;;;5036578;28;20052;-87
2022/04/04 00:56:48;;;;;;;7.28;5.18;;;3.40;99.90;;;;;;5046627;28;20040;-87
2022/04/04 00:59:17;;;;;;;8.98;5.13;;;3.40;99.90;;;;;;5040935;28;20033;-86
2022/04/04 01:01:44;;;;;;;11.57;4.82;;;3.40;99.90;;;;;;5066054;28;20044;-87
2022/04/04 01:04:11;;;;;;;7.50;5.07;;;3.40;99.90;;;;;;5039308;28;20479;-87
2022/04/04 01:06:49;;;;;;;9.63;4.88;;;3.50;99.90;;;;;;5045992;28;20053;-86
2022/04/04 01:09:23;;;;;;;;;;;3.50;99.90;;;;;;5038300;28;20530;-86
2022/04/04 01:12:12;;;;;;;7.43;5.05;;;3.40;99.90;;;;;;5035741;28;19995;-87
2022/04/04 01:14:47;;;;;;;10.40;6.07;;;3.40;99.90;;;;;;5055959;28;20048;-87
2022/04/04 01:17:16;;;;;;;;;;;3.40;99.90;;;;;;5038427;28;20028;-86
2022/04/04 01:19:45;;;;;;;9.45;5.88;;;3.40;99.90;;;;;;5040306;28;19947;-86
2022/04/04 01:22:15;;;;;;;9.98;6.13;;;3.50;99.90;;;;;;5035917;28;20032;-87
2022/04/04 01:24:44;;;;;;;11.10;6.03;;;3.50;99.90;;;;;;5043346;28;20032;-87
2022/04/04 01:27:12;;;;;;;10.70;6.85;;;3.50;99.90;;;;;;5038934;28;20032;-86
2022/04/04 01:29:45;;;;;;;10.05;6.82;;;3.60;99.90;;;;;;5035569;28;20052;-88
2022/04/04 01:32:11;;;;;;;11.73;6.70;;;3.60;99.90;;;;;;5054629;28;20111;-86
2022/04/04 01:34:37;;;;;;;13.43;7.15;;;3.50;99.90;;;;;;5052747;28;20148;-87
2022/04/04 01:37:03;;;;;;;9.68;6.53;;;3.60;99.90;;;;;;5035681;28;20047;-87
2022/04/04 01:39:29;;;;;;;9.90;6.88;;;3.60;99.90;;;;;;5055539;28;20281;-87
2022/04/04 01:42:00;;;;;;;11.60;7.45;;;3.60;99.90;;;;;;5037301;28;20036;-87
2022/04/04 01:44:29;;;;;;;11.68;7.55;;;3.60;99.90;;;;;;5037752;28;20032;-88
2022/04/04 01:46:55;;;;;;;14.50;8.95;;;3.70;99.90;;;;;;5053545;28;20060;-87
2022/04/04 01:49:20;;;;;;;11.85;8.35;;;3.70;99.90;;;;;;5037151;28;20029;-86
2022/04/04 01:51:46;;;;;;;12.15;8.85;;;3.80;99.90;;;;;;5031855;28;20049;-87
2022/04/04 01:54:12;;;;;;;13.82;9.35;;;3.80;99.90;;;;;;5052098;28;20127;-86
2022/04/04 01:56:37;;;;;;;12.68;8.82;;;3.80;99.90;;;;;;5040254;28;20396;-87
2022/04/04 01:59:04;;;;;;;13.77;8.65;;;3.90;99.90;;;;;;5036699;28;20473;-87
2022/04/04 02:01:42;;;;;;;23.13;9.63;;;3.80;99.90;;;;;;5036488;28;20072;-87
2022/04/04 02:04:11;;;;;;;12.25;9.75;;;3.90;99.90;;;;;;5051504;28;20037;-87
2022/04/04 02:06:41;;;;;;;16.08;10.18;;;3.90;99.90;;;;;;5053149;28;20098;-87
2022/04/04 02:09:12;;;;;;;16.23;10.88;;;3.90;99.90;;;;;;5038029;28;20059;-86
2022/04/04 02:11:43;;;;;;;14.55;10.63;;;3.90;99.90;;;;;;5036499;28;20070;-87
2022/04/04 02:14:09;;;;;;;16.98;11.30;;;3.90;99.90;;;;;;5054188;28;20193;-88
2022/04/04 02:16:37;;;;;;;21.55;11.23;;;3.90;99.90;;;;;;5037524;28;20480;-87
2022/04/04 02:19:03;;;;;;;17.85;12.18;;;4.00;99.90;;;;;;5038372;28;20345;-87
2022/04/04 02:21:29;;;;;;;15.35;11.13;;;3.90;99.90;;;;;;5037831;28;20040;-88
2022/04/04 02:23:57;;;;;;;15.52;11.73;;;3.90;99.90;;;;;;5038725;28;20044;-88
2022/04/04 02:26:29;;;;;;;15.25;12.27;;;4.00;99.90;;;;;;5053618;28;20083;-87
2022/04/04 02:28:58;;;;;;;17.15;11.60;;;4.00;99.90;;;;;;5054999;28;20621;-88
2022/04/04 02:31:24;;;;;;;18.17;13.45;;;4.00;99.90;;;;;;5053749;28;20032;-88
2022/04/04 02:33:51;;;;;;;17.35;12.70;;;4.10;99.90;;;;;;5053260;28;20500;-88
2022/04/04 02:36:49;;;;;;;16.20;12.80;;;4.10;99.90;;;;;;5038356;28;20242;-89
2022/04/04 02:39:17;;;;;;;25.83;12.73;;;4.10;99.90;;;;;;5042216;28;20088;-88
2022/04/04 02:41:46;;;;;;;16.52;12.75;;;4.10;99.90;;;;;;5038826;28;20037;-88
2022/04/04 02:44:14;;;;;;;15.50;12.35;;;4.10;99.90;;;;;;5036051;28;20055;-88
2022/04/04 02:46:45;;;;;;;18.02;13.07;;;4.20;99.90;;;;;;5037291;28;20028;-89
2022/04/04 02:49:11;;;;;;;18.38;12.88;;;4.10;99.90;;;;;;5052314;28;20270;-87
2022/04/04 02:51:37;;;;;;;20.23;13.02;;;4.20;99.90;;;;;;5053171;28;20051;-87
2022/04/04 02:54:03;;;;;;;18.52;13.68;;;4.30;99.90;;;;;;5039668;28;20086;-88
2022/04/04 02:56:29;;;;;;;18.98;12.77;;;4.30;99.90;;;;;;5051921;28;20518;-87
2022/04/04 02:58:56;;;;;;;17.08;12.55;;;4.40;99.90;;;;;;5038587;28;20054;-90
2022/04/04 03:01:22;;;;;;;18.05;12.63;;;4.40;99.90;;;;;;5038786;28;20491;-88
2022/04/04 03:03:51;;;;;;;15.98;12.35;;;4.40;99.90;;;;;;5034720;28;20122;-88
2022/04/04 03:06:17;;;;;;;16.67;11.68;;;4.50;99.90;;;;;;5038516;28;20055;-88
2022/04/04 03:08:48;;;;;;;21.73;12.98;;;4.50;99.90;;;;;;5021250;28;20617;-88
2022/04/04 03:11:16;;;;;;;15.65;11.60;;;4.50;99.90;;;;;;5038665;28;20044;-88
2022/04/04 03:13:44;;;;;;;17.50;12.35;;;4.60;99.90;;;;;;5053784;28;20041;-88
2022/04/04 03:16:10;;;;;;;20.48;12.43;;;4.50;99.90;;;;;;5052656;28;20047;-87
2022/04/04 03:18:37;;;;;;;16.60;12.00;;;4.60;99.90;;;;;;5038285;28;20392;-86
2022/04/04 03:21:04;;;;;;;18.75;12.68;;;4.60;99.90;;;;;;5037221;28;20052;-87
2022/04/04 03:23:31;;;;;;;17.70;12.15;;;4.60;99.90;;;;;;5053549;28;20112;-87
2022/04/04 03:25:57;;;;;;;18.13;12.68;;;4.70;99.90;;;;;;5055653;28;20052;-87
2022/04/04 03:28:23;;;;;;;22.10;13.00;;;4.70;99.90;;;;;;5039457;28;20312;-88
2022/04/04 03:30:55;;;;;;;21.98;12.85;;;4.70;99.90;;;;;;5052950;28;20245;-88
2022/04/04 03:33:31;;;;;;;20.30;12.85;;;4.80;99.90;;;;;;5032526;28;20051;-88
2022/04/04 03:35:58;;;;;;;24.50;13.18;;;4.80;96.70;;;;;;5056314;28;20302;-88
2022/04/04 03:38:40;;;;;;;;;;;;;;;;;;;;;
2022/04/04 03:41:09;;;;;;;19.70;13.05;;;4.80;97.10;;;;;;5055571;28;20048;-89
2022/04/04 03:43:35;;;;;;;23.65;13.43;;;4.90;86.30;;;;;;5043168;28;20516;-88
2022/04/04 03:46:04;;;;;;;19.50;12.63;;;4.90;78.40;;;;;;5054562;28;20392;-88
2022/04/04 03:48:30;;;;;;;19.40;13.77;;;4.90;76.20;;;;;;5040379;28;20201;-89
2022/04/04 03:50:55;;;;;;;20.42;13.82;;;4.90;77.20;;;;;;5056328;28;20444;-86
2022/04/04 03:53:25;;;;;;;19.50;12.98;;;5.00;92.20;;;;;;5040674;28;20510;-89
2022/04/04 03:55:50;;;;;;;24.05;13.52;;;4.90;99.80;;;;;;5041538;28;20581;-88
2022/04/04 03:58:17;;;;;;;17.67;12.25;;;5.00;99.90;;;;;;5042421;28;20539;-89
2022/04/04 04:00:44;;;;;;;20.60;13.80;;;5.10;99.90;;;;;;5057579;28;20121;-89
2022/04/04 04:03:10;;;;;;;21.52;13.05;;;5.10;99.90;;;;;;5040106;28;20086;-88
2022/04/04 04:05:41;;;;;;;21.75;13.70;;;5.10;99.90;;;;;;5040918;28;20467;-88
2022/04/04 04:08:10;;;;;;;19.40;13.52;;;5.00;99.90;;;;;;5055871;28;20056;-87
2022/04/04 04:10:39;;;;;;;19.95;12.68;;;5.00;99.90;;;;;;5054662;28;20378;-88
2022/04/04 04:13:05;;;;;;;19.80;13.52;;;5.00;99.90;;;;;;5055496;28;20450;-88
2022/04/04 04:15:34;;;;;;;22.05;13.52;;;5.00;99.90;;;;;;5057246;28;20083;-87
2022/04/04 04:18:02;;;;;;;18.70;13.05;;;4.90;99.90;;;;;;5039137;28;20124;-89
2022/04/04 04:20:32;;;;;;;19.60;14.35;;;5.00;99.90;;;;;;5039434;28;20537;-89
2022/04/04 04:23:04;;;;;;;19.55;13.98;;;5.00;99.90;;;;;;5037069;28;20040;-89
2022/04/04 04:25:35;;;;;;;19.10;13.73;;;5.00;99.90;;;;;;5058234;28;20541;-88
2022/04/04 04:28:03;;;;;;;18.73;11.32;;;5.10;99.90;;;;;;5058331;28;20270;-88
2022/04/04 04:30:31;;;;;;;19.52;13.38;;;5.10;99.90;;;;;;5056638;28;20040;-88
2022/04/04 04:32:57;;;;;;;24.95;13.77;;;5.10;99.90;;;;;;5041916;28;20094;-89
2022/04/04 04:35:23;;;;;;;17.98;13.75;;;5.10;99.90;;;;;;5056948;28;20037;-88
2022/04/04 04:37:50;;;;;;;20.70;14.10;;;5.10;99.90;;;;;;5053111;28;20045;-87
2022/04/04 04:40:17;;;;;;;20.52;12.43;;;5.10;99.90;;;;;;5039904;28;20273;-90
2022/04/04 04:42:44;;;;;;;18.20;12.23;;;5.10;99.90;;;;;;5057645;28;20036;-88
2022/04/04 04:45:11;;;;;;;20.83;13.98;;;5.10;99.90;;;;;;5040466;28;20413;-87
2022/04/04 04:47:37;;;;;;;18.92;12.85;;;5.20;99.90;;;;;;5054069;28;20048;-88
2022/04/04 04:50:04;;;;;;;18.52;13.30;;;5.20;99.90;;;;;;5039752;28;20037;-90
2022/04/04 04:52:33;;;;;;;21.85;13.80;;;5.20;99.90;;;;;;5039662;28;20048;-88
2022/04/04 04:55:04;;;;;;;22.38;13.60;;;5.20;99.90;;;;;;5053645;28;20519;-87
2022/04/04 04:57:30;;;;;;;18.17;13.43;;;5.20;99.90;;;;;;5039816;28;20491;-88
2022/04/04 05:00:02;;;;;;;22.35;14.15;;;5.10;99.90;;;;;;5039892;28;20411;-88
2022/04/04 05:02:30;;;;;;;20.30;14.73;;;5.10;99.90;;;;;;5056626;28;20036;-88
2022/04/04 05:04:56;;;;;;;23.33;13.63;;;5.00;99.90;;;;;;5040919;28;20041;-87
2022/04/04 05:07:23;;;;;;;20.52;13.90;;;5.10;99.90;;;;;;5055701;28;20060;-87
2022/04/04 05:09:49;;;;;;;22.73;14.07;;;5.00;99.90;;;;;;5039312;28;20380;-89
2022/04/04 05:12:18;;;;;;;20.23;14.85;;;5.00;99.90;;;;;;5038641;28;20063;-89
2022/04/04 05:14:44;;;;;;;20.98;14.95;;;5.00;99.90;;;;;;5038541;28;20040;-88
2022/04/04 05:17:09;;;;;;;25.95;15.18;;;5.00;99.90;;;;;;5053952;28;20025;-87
2022/04/04 05:19:36;;;;;;;19.85;14.15;;;5.00;99.90;;;;;;5039156;28;20078;-88
2022/04/04 05:22:04;;;;;;;23.35;14.45;;;4.90;99.90;;;;;;5036591;28;20041;-88
2022/04/04 05:24:31;;;;;;;17.73;12.77;;;4.90;99.90;;;;;;5052238;28;20040;-88
2022/04/04 05:26:57;;;;;;;20.20;15.25;;;5.00;99.90;;;;;;5039381;28;20051;-87
2022/04/04 05:29:26;;;;;;;22.38;15.35;;;4.90;99.90;;;;;;5039466;28;20052;-87
2022/04/04 05:31:56;;;;;;;22.63;15.15;;;4.90;99.90;;;;;;5055455;28;20107;-89
2022/04/04 05:34:25;;;;;;;21.40;15.10;;;4.90;99.90;;;;;;5038718;28;20040;-87
2022/04/04 05:36:51;;;;;;;23.60;14.55;;;5.00;99.90;;;;;;5035432;28;20064;-87
2022/04/04 05:39:16;;;;;;;23.75;15.05;;;4.90;99.90;;;;;;5037723;28;20075;-87
2022/04/04 05:41:42;;;;;;;25.60;15.65;;;4.90;99.90;;;;;;5038636;28;20037;-87
2022/04/04 05:44:11;;;;;;;21.98;14.77;;;4.90;99.90;;;;;;5041979;28;20032;-87
2022/04/04 05:46:37;;;;;;;21.48;14.30;;;4.90;99.90;;;;;;5037445;28;20119;-87
2022/04/04 05:49:03;;;;;;;21.20;14.57;;;5.00;99.90;;;;;;5054598;28;20036;-87
2022/04/04 05:51:29;;;;;;;20.58;13.40;;;5.10;99.90;;;;;;5042278;28;20097;-87
2022/04/04 05:53:55;;;;;;;21.27;14.80;;;5.10;99.90;;;;;;5038334;28;20036;-88
2022/04/04 05:56:21;;;;;;;19.58;13.20;;;5.00;99.90;;;;;;5055398;28;20399;-87
2022/04/04 05:58:53;;;;;;;27.63;15.45;;;5.00;99.90;;;;;;5056025;28;20036;-88
2022/04/04 06:01:19;;;;;;;21.95;12.93;;;5.00;99.90;;;;;;5057172;28;20040;-87
2022/04/04 06:03:44;;;;;;;17.70;13.32;;;5.10;99.90;;;;;;5052706;28;20036;-87
2022/04/04 06:06:13;;;;;;;18.77;12.40;;;5.00;99.90;;;;;;5037558;28;20072;-87
2022/04/04 06:08:38;;;;;;;18.67;8.90;;;5.10;99.90;;;;;;5038095;28;20102;-87
2022/04/04 06:11:06;;;;;;;15.27;10.35;;;5.10;99.90;;;;;;5037740;28;20055;-87
2022/04/04 06:13:32;;;;;;;10.68;6.30;;;5.10;99.90;;;;;;5053955;28;20416;-87
2022/04/04 06:16:00;;;;;;;9.02;6.80;;;5.20;99.90;;;;;;5036897;28;20041;-88
2022/04/04 06:18:26;;;;;;;9.40;5.53;;;5.30;99.90;;;;;;5035967;28;20032;-88
2022/04/04 06:20:55;;;;;;;8.80;6.05;;;5.30;99.90;;;;;;5032474;28;20398;-89
2022/04/04 06:23:21;;;;;;;12.38;5.40;;;5.20;99.90;;;;;;5037092;28;20186;-88
2022/04/04 06:25:49;;;;;;;9.95;5.80;;;5.20;99.90;;;;;;5036670;28;20563;-88
2022/04/04 06:28:17;;;;;;;12.02;6.10;;;5.20;99.90;;;;;;5038815;28;20040;-88
2022/04/04 06:30:44;;;;;;;9.50;4.55;;;5.20;99.90;;;;;;5037572;28;20479;-87
2022/04/04 06:33:09;;;;;;;8.07;5.30;;;5.10;99.90;;;;;;5053909;28;20183;-87
2022/04/04 06:35:35;;;;;;;8.57;4.38;;;5.10;99.90;;;;;;5051977;28;20495;-87
2022/04/04 06:38:02;;;;;;;9.05;5.22;;;5.10;99.90;;;;;;5049080;28;20573;-88
2022/04/04 06:40:28;;;;;;;9.88;6.15;;;5.00;99.90;;;;;;5052899;28;20193;-88
2022/04/04 06:42:56;;;;;;;8.68;5.05;;;5.00;99.90;;;;;;5048388;28;20033;-87
2022/04/04 06:45:22;;;;;;;7.32;5.00;;;5.10;99.90;;;;;;5036484;28;20112;-87
2022/04/04 06:47:54;;;;;;;8.27;4.85;;;5.10;99.90;;;;;;5036573;28;20430;-88
2022/04/04 06:50:20;;;;;;;13.38;5.80;;;5.00;99.90;;;;;;5054078;28;20119;-88
2022/04/04 06:52:47;;;;;;;9.52;6.03;;;5.10;99.90;;;;;;5037006;28;20041;-88
2022/04/04 06:55:14;;;;;;;12.25;5.90;;;5.00;99.90;;;;;;5054216;28;20089;-90
2022/04/04 06:57:41;;;;;;;7.43;4.90;;;5.10;99.90;;;;;;5048159;28;20047;-88
2022/04/04 07:00:18;;;;;;;9.25;5.35;;;5.00;99.90;;;;;;5052959;28;20067;-87
2022/04/04 07:02:44;;;;;;;7.80;4.97;;;5.10;99.90;;;;;;5036537;28;20063;-87
2022/04/04 07:05:10;;;;;;;6.75;4.55;;;5.10;99.90;;;;;;5071274;28;20555;-87
2022/04/04 07:07:36;;;;;;;8.68;5.25;;;5.20;99.90;;;;;;5051586;28;20446;-87
2022/04/04 07:10:05;;;;;;;10.68;6.78;;;5.20;99.90;;;;;;5037374;28;20072;-87
2022/04/04 07:12:31;;;;;;;10.65;6.75;;;5.20;99.90;;;;;;5041336;28;20040;-88
2022/04/04 07:14:57;;;;;;;11.20;7.65;;;5.10;99.90;;;;;;5041151;28;20048;-88
2022/04/04 07:17:23;;;;;;;14.45;9.63;;;5.10;99.90;;;;;;5049244;28;20102;-88
2022/04/04 07:19:48;;;;;;;16.75;10.15;;;5.10;99.90;;;;;;5041825;28;20134;-88
2022/04/04 07:22:16;;;;;;;17.98;10.95;;;5.10;99.90;;;;;;5040873;28;20102;-86
2022/04/04 07:24:42;;;;;;;15.18;9.70;;;5.10;99.90;;;;;;5043754;28;20032;-88
2022/04/04 07:27:08;;;;;;;15.55;10.05;;;5.20;99.90;;;;;;5056366;28;20072;-87
2022/04/04 07:29:33;;;;;;;18.45;11.32;;;5.20;99.90;;;;;;5042130;28;20129;-88
2022/04/04 07:32:10;;;;;;;17.38;11.57;;;5.20;99.90;;;;;;5041647;28;20041;-87
2022/04/04 07:34:39;;;;;;;14.60;10.13;;;5.30;99.90;;;;;;5057885;28;20044;-87
2022/04/04 07:37:14;;;;;;;14.30;9.57;;;5.20;99.90;;;;;;5052636;28;20434;-87
2022/04/04 07:39:40;;;;;;;18.13;10.90;;;5.40;99.90;;;;;;5049082;28;20229;-87
2022/04/04 07:42:06;;;;;;;15.23;9.80;;;5.40;99.90;;;;;;5041489;28;20666;-88
2022/04/04 07:44:35;;;;;;;12.90;9.80;;;5.40;99.90;;;;;;5055563;28;20503;-88
2022/04/04 07:47:01;;;;;;;15.95;9.23;;;5.50;99.90;;;;;;5055401;28;20067;-88
2022/04/04 07:49:27;;;;;;;13.35;8.15;;;5.40;99.90;;;;;;5055882;28;20072;-88
2022/04/04 07:51:53;;;;;;;14.23;8.57;;;5.50;99.90;;;;;;5056308;28;20033;-87
2022/04/04 07:54:24;;;;;;;10.93;6.93;;;5.50;99.90;;;;;;5059045;28;20051;-88
2022/04/04 07:56:53;;;;;;;11.65;6.85;;;5.40;99.90;;;;;;5057283;28;20033;-87
2022/04/04 07:59:19;;;;;;;13.07;8.82;;;5.50;99.90;;;;;;5043132;28;20051;-89
2022/04/04 08:01:46;;;;;;;12.98;7.93;;;5.50;99.90;;;;;;5039866;28;20028;-88
2022/04/04 08:04:15;;;;;;;13.20;9.27;;;5.50;99.90;;;;;;5042072;28;20044;-88
2022/04/04 08:06:40;;;;;;;13.57;8.98;;;5.50;99.90;;;;;;5057095;28;20530;-87
2022/04/04 08:09:07;;;;;;;12.20;8.70;;;5.50;99.90;;;;;;5039989;28;20071;-89
2022/04/04 08:11:36;;;;;;;10.63;7.47;;;5.60;99.90;;;;;;5050381;28;20076;-88
2022/04/04 08:14:03;;;;;;;11.55;7.38;;;5.50;99.90;;;;;;5041839;28;20070;-88
2022/04/04 08:16:29;;;;;;;12.32;8.52;;;5.50;99.90;;;;;;5040898;28;20393;-88
2022/04/04 08:18:56;;;;;;;12.55;8.23;;;5.50;99.90;;;;;;5050707;28;20087;-87
2022/04/04 08:21:23;;;;;;;10.77;7.45;;;5.60;99.90;;;;;;5063240;28;20044;-90
2022/04/04 08:23:52;;;;;;;9.10;5.65;;;5.60;99.90;;;;;;5047801;28;20275;-88
2022/04/04 08:26:17;;;;;;;7.28;5.97;;;5.60;99.90;;;;;;5048141;28;20086;-87
2022/04/04 08:28:43;;;;;;;14.00;7.13;;;5.70;99.90;;;;;;5068104;28;20064;-88
2022/04/04 08:31:09;;;;;;;11.18;7.85;;;5.70;99.90;;;;;;5064636;28;20438;-88
2022/04/04 08:33:38;;;;;;;9.77;5.80;;;5.80;99.90;;;;;;5057003;28;20049;-87
2022/04/04 08:36:12;;;;;;;9.93;5.80;;;5.80;99.90;;;;;;5053107;28;20710;-89
2022/04/04 08:38:39;;;;;;;8.88;6.55;;;5.80;99.90;;;;;;5039538;28;20464;-88
2022/04/04 08:41:10;;;;;;;9.25;6.70;;;5.90;99.90;;;;;;5061584;28;20171;-88
2022/04/04 08:43:42;;;;;;;10.40;5.47;;;6.00;99.90;;;;;;5054862;28;20098;-88
2022/04/04 08:46:08;;;;;;;8.63;4.93;;;6.00;99.90;;;;;;5040319;28;20479;-88
2022/04/04 08:48:39;;;;;;;8.38;5.00;;;6.00;99.90;;;;;;5040890;28;20056;-89
2022/04/04 08:51:14;;;;;;;7.53;5.18;;;6.00;99.90;;;;;;5039647;28;20052;-87
2022/04/04 08:53:40;;;;;;;8.13;4.53;;;6.10;99.90;;;;;;5038108;28;20085;-89
2022/04/04 08:56:09;;;;;;;6.32;4.45;;;6.20;99.90;;;;;;5068086;28;20041;-88
2022/04/04 08:58:35;;;;;;;7.93;3.78;;;6.30;99.90;;;;;;5041040;28;20093;-89
2022/04/04 09:01:01;;;;;;;6.72;4.53;;;6.20;99.90;;;;;;5039234;28;20036;-88
2022/04/04 09:03:31;;;;;;;7.05;4.43;;;6.30;99.90;;;;;;5049460;28;20427;-89
2022/04/04 09:06:05;;;;;;;5.63;3.90;;;6.30;99.90;;;;;;5049724;28;20067;-87
2022/04/04 09:08:48;;;;;;;6.75;4.13;;;6.30;99.90;;;;;;5038637;28;20530;-88
2022/04/04 09:11:14;;;;;;;4.93;3.63;;;6.40;99.90;;;;;;5040788;28;20047;-89
2022/04/04 09:13:41;;;;;;;5.13;3.60;;;6.40;99.90;;;;;;5057110;28;20029;-88
2022/04/04 09:16:08;;;;;;;6.32;2.92;;;6.30;99.90;;;;;;5040230;28;20033;-88
2022/04/04 09:18:37;;;;;;;4.82;3.08;;;6.30;99.90;;;;;;5058290;28;20167;-89
2022/04/04 09:21:12;;;;;;;4.45;3.08;;;6.40;99.90;;;;;;5041924;28;20047;-88
2022/04/04 09:23:47;;;;;;;5.60;3.40;;;6.40;99.90;;;;;;5071909;28;20118;-88
2022/04/04 09:26:41;;;;;;;8.80;3.08;;;6.50;99.90;;;;;;5040869;28;20040;-89
2022/04/04 09:29:24;;;;;;;4.82;3.17;;;6.50;99.90;;;;;;5050632;28;20044;-89
2022/04/04 09:32:05;;;;;;;6.32;4.07;;;6.40;99.90;;;;;;5070896;28;20446;-87
2022/04/04 09:35:04;;;;;;;4.68;3.40;;;6.50;99.90;;;;;;5055883;28;20406;-88
2022/04/04 09:37:33;;;;;;;4.47;2.88;;;6.40;99.90;;;;;;5050605;28;20189;-89
2022/04/04 09:40:24;;;;;;;4.10;2.65;;;6.40;99.90;;;;;;5055715;28;20055;-88
2022/04/04 09:42:50;;;;;;;5.68;3.47;;;6.50;99.90;;;;;;5041456;28;20036;-88
2022/04/04 09:45:16;;;;;;;5.68;3.30;;;6.50;99.90;;;;;;5053411;28;20287;-89
2022/04/04 09:48:02;;;;;;;8.88;3.63;;;6.50;99.90;;;;;;5055604;28;20111;-89
2022/04/04 09:50:41;;;;;;;6.97;3.00;;;6.60;99.90;;;;;;5056551;28;20503;-88
2022/04/04 09:53:10;;;;;;;6.45;3.42;;;6.50;99.90;;;;;;5038978;28;20369;-89
2022/04/04 09:55:43;;;;;;;5.13;3.60;;;6.60;99.90;;;;;;5049704;28;20076;-89
2022/04/04 09:58:14;;;;;;;5.10;3.22;;;6.70;99.90;;;;;;5058075;28;20888;-89
2022/04/04 10:00:48;;;;;;;5.53;3.47;;;6.60;99.90;;;;;;5038761;28;20369;-88
2022/04/04 10:03:19;;;;;;;5.22;3.55;;;6.60;99.90;;;;;;5038060;28;20032;-88
2022/04/04 10:05:59;;;;;;;3.75;2.88;;;6.60;99.90;;;;;;5055890;28;20444;-91
2022/04/04 10:08:37;;;;;;;8.07;3.72;;;6.80;99.90;;;;;;5037432;28;20052;-89
2022/04/04 10:11:14;;;;;;;8.75;3.60;;;6.80;99.90;;;;;;5058208;28;20126;-90
2022/04/04 10:13:49;;;;;;;5.15;3.10;;;6.80;99.90;;;;;;5039293;28;20025;-88
2022/04/04 10:16:16;;;;;;;6.78;3.75;;;6.80;99.90;;;;;;5047925;28;20368;-89
2022/04/04 10:18:43;;;;;;;8.30;3.25;;;6.80;99.90;;;;;;5054873;28;20050;-89
2022/04/04 10:21:11;;;;;;;6.38;3.78;;;6.80;99.90;;;;;;5035926;28;20051;-88
2022/04/04 10:23:41;;;;;;;6.95;3.75;;;6.90;99.90;;;;;;5046697;28;20098;-87
2022/04/04 10:26:07;;;;;;;7.35;3.60;;;6.80;99.90;;;;;;5039508;28;20689;-88
2022/04/04 10:28:38;;;;;;;5.85;3.90;;;6.80;99.90;;;;;;5057188;28;20106;-88
2022/04/04 10:31:19;;;;;;;7.40;3.20;;;6.90;99.90;;;;;;5039360;28;20085;-87
2022/04/04 10:33:50;;;;;;;6.10;3.35;;;6.90;99.90;;;;;;5068233;28;20412;-88
2022/04/04 10:36:22;;;;;;;6.05;3.10;;;7.00;99.90;;;;;;5037702;28;20463;-90
2022/04/04 10:38:56;;;;;;;6.43;3.20;;;7.00;99.90;;;;;;5064729;28;20053;-89
2022/04/04 10:41:27;;;;;;;6.57;3.50;;;6.90;99.90;;;;;;5054626;28;20048;-89
2022/04/04 10:43:54;;;;;;;6.53;3.30;;;6.90;99.90;;;;;;5052376;28;21124;-89
2022/04/04 10:46:27;;;;;;;4.70;2.97;;;7.00;99.90;;;;;;5037882;28;20180;-88
2022/04/04 10:49:00;;;;;;;4.30;2.95;;;7.00;99.90;;;;;;5072049;28;20444;-89
2022/04/04 10:51:37;;;;;;;6.72;3.20;;;7.10;99.90;;;;;;5055559;28;20048;-89
2022/04/04 10:54:09;;;;;;;5.75;3.40;;;7.10;99.90;;;;;;5038943;28;20056;-90
2022/04/04 10:56:40;;;;;;;4.22;3.00;;;7.10;99.90;;;;;;5039870;28;20044;-90
2022/04/04 10:59:21;;;;;;;5.38;2.65;;;7.20;99.90;;;;;;5056698;28;20123;-89
2022/04/04 11:01:53;;;;;;;5.10;2.80;;;7.10;99.90;;;;;;5040021;28;20102;-89
2022/04/04 11:07:39;;;;;;;2.53;2.10;;;7.30;99.90;;;;;;5025326;28;20041;-89
2022/04/04 11:10:06;;;;;;;3.80;2.92;;;7.10;99.90;;;;;;5061392;28;20072;-90
2022/04/04 11:13:04;;;;;;;5.05;2.88;;;7.30;99.90;;;;;;5042204;28;20147;-90
2022/04/04 11:15:49;;;;;;;5.35;2.95;;;7.30;99.90;;;;;;5054809;28;20532;-89
2022/04/04 11:18:20;;;;;;;5.00;2.20;;;7.50;99.90;;;;;;5041308;28;20403;-88
2022/04/04 11:20:59;;;;;;;2.85;2.20;;;7.50;99.90;;;;;;5055713;28;20099;-91
2022/04/04 11:23:34;;;;;;;3.28;2.40;;;7.50;99.90;;;;;;5039601;28;20309;-91
2022/04/04 11:26:01;;;;;;;2.88;1.90;;;7.50;99.90;;;;;;5040351;28;20389;-88
2022/04/04 11:28:32;;;;;;;2.42;1.80;;;7.60;99.90;;;;;;5064607;28;20471;-89
2022/04/04 11:31:12;;;;;;;2.72;2.00;;;7.60;99.90;;;;;;5052404;28;20040;-89
2022/04/04 11:33:54;;;;;;;3.67;2.10;;;7.60;99.90;;;;;;5039370;28;20029;-89
2022/04/04 11:36:30;;;;;;;2.58;1.85;;;7.70;99.90;;;;;;5039391;28;20181;-88
2022/04/04 11:39:08;;;;;;;2.95;1.80;;;7.80;99.90;;;;;;5048695;28;20138;-89
2022/04/04 11:41:39;;;;;;;1.65;1.55;;;7.90;99.90;;;;;;5055422;28;20051;-90
2022/04/04 11:44:11;;;;;;;2.65;1.98;;;7.80;99.90;;;;;;5057406;28;20223;-89
2022/04/04 11:46:37;;;;;;;2.05;1.73;;;7.80;99.90;;;;;;5039006;28;20029;-89
2022/04/04 11:49:09;;;;;;;1.77;1.40;;;7.90;99.90;;;;;;5053932;28;20198;-91
2022/04/04 11:51:34;;;;;;;1.80;1.60;;;7.90;99.90;;;;;;5038425;28;20060;-89
2022/04/04 11:54:09;;;;;;;2.10;1.58;;;7.90;99.90;;;;;;5048285;28;20045;-91
2022/04/04 11:56:38;;;;;;;2.70;1.80;;;7.90;99.90;;;;;;5043571;28;20140;-89
2022/04/04 11:59:06;;;;;;;2.58;1.20;;;7.80;99.90;;;;;;5068436;28;20071;-88
2022/04/04 12:01:35;;;;;;;2.05;1.30;;;7.90;99.90;;;;;;5039479;28;20025;-88
2022/04/04 12:04:05;;;;;;;1.63;1.23;;;8.00;99.90;;;;;;5044938;28;20040;-89
2022/04/04 12:06:31;;;;;;;1.92;1.38;;;8.00;99.90;;;;;;5043937;28;20044;-89
2022/04/04 12:09:03;;;;;;;1.40;1.30;;;7.90;99.90;;;;;;5069388;28;20471;-89
2022/04/04 12:11:44;;;;;;;1.48;1.25;;;8.00;99.90;;;;;;5055268;28;20039;-89
2022/04/04 12:14:16;;;;;;;1.42;1.10;;;8.00;99.90;;;;;;5045690;28;20470;-90
2022/04/04 12:16:53;;;;;;;1.25;1.10;;;8.00;99.90;;;;;;5075478;28;20335;-89
2022/04/04 12:19:19;;;;;;;1.35;1.17;;;8.00;99.90;;;;;;5055788;28;20079;-88
2022/04/04 12:24:54;;;;;;;1.08;0.98;;;8.10;99.90;;;;;;5038922;28;20460;-92
2022/04/04 12:24:55;;;;;;;1.33;1.23;;;8.10;99.90;;;;;;5058096;28;20040;-89
2022/04/04 12:27:22;;;;;;;1.92;1.40;;;8.10;99.90;;;;;;5034845;28;20047;-89
2022/04/04 12:29:47;;;;;;;1.42;1.20;;;8.20;99.90;;;;;;5042240;28;20070;-89
2022/04/04 12:32:18;;;;;;;1.10;1.00;;;8.30;99.90;;;;;;5057516;28;20046;-88
2022/04/04 12:34:57;;;;;;;1.35;1.20;;;8.30;99.90;;;;;;5054863;28;20046;-89
2022/04/04 12:37:40;;;;;;;0.93;0.93;;;8.30;99.90;;;;;;5041084;28;20054;-89
2022/04/04 12:40:23;;;;;;;2.17;1.30;;;8.30;99.90;;;;;;5065212;28;20098;-89
2022/04/04 12:43:05;;;;;;;1.15;1.05;;;8.50;99.90;;;;;;5050800;28;20402;-88
2022/04/04 12:45:32;;;;;;;1.13;1.02;;;8.40;99.90;;;;;;5039498;28;20175;-89
2022/04/04 12:48:10;;;;;;;1.30;1.20;;;8.50;99.90;;;;;;5057307;28;20040;-89
2022/04/04 12:50:39;;;;;;;0.93;0.88;;;8.50;99.90;;;;;;5033835;28;20604;-89
2022/04/04 12:53:12;;;;;;;1.13;0.93;;;8.60;99.90;;;;;;5055630;28;20458;-89
2022/04/04 12:55:43;;;;;;;1.00;0.93;;;8.50;99.90;;;;;;5055470;28;20268;-89
2022/04/04 12:58:26;;;;;;;1.50;1.00;;;8.60;99.90;;;;;;5057347;28;20144;-89
2022/04/04 13:00:55;;;;;;;1.45;1.02;;;8.60;99.90;;;;;;5055814;28;20060;-89
2022/04/04 13:03:26;;;;;;;0.80;0.80;;;8.50;99.90;;;;;;5039862;28;20134;-91
2022/04/04 13:06:01;;;;;;;0.98;0.90;;;8.70;99.90;;;;;;5056043;28;20045;-91
2022/04/04 13:08:29;;;;;;;1.83;1.27;;;8.80;99.90;;;;;;5039428;28;20129;-89